sensor_id;sensor_type;location;lat;lon;timestamp;temperature;humidity
24744;DHT22;12844;52.110;5.548;2024-02-14T00:01:17;19.00;58.70
24744;DHT22;12844;52.110;5.548;2024-02-14T00:03:44;19.10;58.80
24744;DHT22;12844;52.110;5.548;2024-02-14T00:06:09;19.00;58.70
24744;DHT22;12844;52.110;5.548;2024-02-14T00:08:37;19.00;59.30
24744;DHT22;12844;52.110;5.548;2024-02-14T00:11:03;19.00;58.70
24744;DHT22;12844;52.110;5.548;2024-02-14T00:13:29;19.00;58.70
24744;DHT22;12844;52.110;5.548;2024-02-14T00:15:54;19.00;58.70
24744;DHT22;12844;52.110;5.548;2024-02-14T00:18:22;19.00;58.70
24744;DHT22;12844;52.110;5.548;2024-02-14T00:20:48;19.00;59.30
24744;DHT22;12844;52.110;5.548;2024-02-14T00:23:14;18.90;58.60
24744;DHT22;12844;52.110;5.548;2024-02-14T00:25:39;19.00;58.70
24744;DHT22;12844;52.110;5.548;2024-02-14T00:28:05;18.90;58.60
24744;DHT22;12844;52.110;5.548;2024-02-14T00:30:31;18.90;58.60
24744;DHT22;12844;52.110;5.548;2024-02-14T00:32:57;19.00;58.60
24744;DHT22;12844;52.110;5.548;2024-02-14T00:35:22;18.90;58.50
24744;DHT22;12844;52.110;5.548;2024-02-14T00:37:48;18.90;58.60
24744;DHT22;12844;52.110;5.548;2024-02-14T00:40:14;18.90;58.50
24744;DHT22;12844;52.110;5.548;2024-02-14T00:42:40;18.90;58.50
24744;DHT22;12844;52.110;5.548;2024-02-14T00:45:06;18.90;58.50
24744;DHT22;12844;52.110;5.548;2024-02-14T00:47:35;18.90;58.50
24744;DHT22;12844;52.110;5.548;2024-02-14T00:50:02;18.90;58.50
24744;DHT22;12844;52.110;5.548;2024-02-14T00:52:28;18.90;58.50
24744;DHT22;12844;52.110;5.548;2024-02-14T00:54:54;18.80;58.40
24744;DHT22;12844;52.110;5.548;2024-02-14T00:57:20;18.90;59.10
24744;DHT22;12844;52.110;5.548;2024-02-14T00:59:46;18.80;58.40
24744;DHT22;12844;52.110;5.548;2024-02-14T01:02:11;18.80;58.40
24744;DHT22;12844;52.110;5.548;2024-02-14T01:04:37;18.80;58.30
24744;DHT22;12844;52.110;5.548;2024-02-14T01:07:06;18.80;58.30
24744;DHT22;12844;52.110;5.548;2024-02-14T01:09:31;18.80;58.30
24744;DHT22;12844;52.110;5.548;2024-02-14T01:11:59;18.80;58.30
24744;DHT22;12844;52.110;5.548;2024-02-14T01:14:24;18.80;58.30
24744;DHT22;12844;52.110;5.548;2024-02-14T01:16:50;18.80;58.30
24744;DHT22;12844;52.110;5.548;2024-02-14T01:19:17;18.80;58.30
24744;DHT22;12844;52.110;5.548;2024-02-14T01:21:44;18.80;58.30
24744;DHT22;12844;52.110;5.548;2024-02-14T01:24:14;18.80;58.30
24744;DHT22;12844;52.110;5.548;2024-02-14T01:26:39;18.80;58.30
24744;DHT22;12844;52.110;5.548;2024-02-14T01:29:06;18.80;58.30
24744;DHT22;12844;52.110;5.548;2024-02-14T01:31:32;18.80;58.30
24744;DHT22;12844;52.110;5.548;2024-02-14T01:33:58;18.80;58.30
24744;DHT22;12844;52.110;5.548;2024-02-14T01:36:28;18.80;58.30
24744;DHT22;12844;52.110;5.548;2024-02-14T01:38:54;18.80;58.30
24744;DHT22;12844;52.110;5.548;2024-02-14T01:41:19;18.70;58.30
24744;DHT22;12844;52.110;5.548;2024-02-14T01:43:47;18.80;58.30
24744;DHT22;12844;52.110;5.548;2024-02-14T01:46:12;18.80;58.30
24744;DHT22;12844;52.110;5.548;2024-02-14T01:48:39;18.80;58.30
24744;DHT22;12844;52.110;5.548;2024-02-14T01:51:06;18.70;58.20
24744;DHT22;12844;52.110;5.548;2024-02-14T01:53:35;18.70;58.30
24744;DHT22;12844;52.110;5.548;2024-02-14T01:56:01;18.70;58.30
24744;DHT22;12844;52.110;5.548;2024-02-14T01:58:29;18.70;58.20
24744;DHT22;12844;52.110;5.548;2024-02-14T02:00:55;18.70;58.20
24744;DHT22;12844;52.110;5.548;2024-02-14T02:03:25;18.70;58.20
24744;DHT22;12844;52.110;5.548;2024-02-14T02:05:52;18.70;58.20
24744;DHT22;12844;52.110;5.548;2024-02-14T02:08:19;18.70;58.80
24744;DHT22;12844;52.110;5.548;2024-02-14T02:10:45;18.70;58.10
24744;DHT22;12844;52.110;5.548;2024-02-14T02:13:10;18.70;58.10
24744;DHT22;12844;52.110;5.548;2024-02-14T02:15:36;18.70;58.10
24744;DHT22;12844;52.110;5.548;2024-02-14T02:18:05;18.70;58.70
24744;DHT22;12844;52.110;5.548;2024-02-14T02:20:34;18.70;58.10
24744;DHT22;12844;52.110;5.548;2024-02-14T02:23:00;18.70;58.10
24744;DHT22;12844;52.110;5.548;2024-02-14T02:25:25;18.70;58.10
24744;DHT22;12844;52.110;5.548;2024-02-14T02:27:55;18.70;58.10
24744;DHT22;12844;52.110;5.548;2024-02-14T02:30:25;18.70;58.00
24744;DHT22;12844;52.110;5.548;2024-02-14T02:32:51;18.70;58.00
24744;DHT22;12844;52.110;5.548;2024-02-14T02:35:17;18.70;58.20
24744;DHT22;12844;52.110;5.548;2024-02-14T02:37:45;18.70;58.00
24744;DHT22;12844;52.110;5.548;2024-02-14T02:40:13;18.70;58.00
24744;DHT22;12844;52.110;5.548;2024-02-14T02:42:40;18.60;57.90
24744;DHT22;12844;52.110;5.548;2024-02-14T02:45:06;18.70;58.00
24744;DHT22;12844;52.110;5.548;2024-02-14T02:47:32;18.60;57.90
24744;DHT22;12844;52.110;5.548;2024-02-14T02:49:58;18.60;57.90
24744;DHT22;12844;52.110;5.548;2024-02-14T02:52:25;18.60;58.40
24744;DHT22;12844;52.110;5.548;2024-02-14T02:54:51;18.60;57.80
24744;DHT22;12844;52.110;5.548;2024-02-14T02:57:18;18.60;57.80
24744;DHT22;12844;52.110;5.548;2024-02-14T02:59:44;18.60;57.80
24744;DHT22;12844;52.110;5.548;2024-02-14T03:02:11;18.60;57.70
24744;DHT22;12844;52.110;5.548;2024-02-14T03:04:38;18.60;57.70
24744;DHT22;12844;52.110;5.548;2024-02-14T03:07:04;18.60;57.60
24744;DHT22;12844;52.110;5.548;2024-02-14T03:09:32;18.60;57.40
24744;DHT22;12844;52.110;5.548;2024-02-14T03:11:58;18.60;57.40
24744;DHT22;12844;52.110;5.548;2024-02-14T03:14:23;18.60;57.50
24744;DHT22;12844;52.110;5.548;2024-02-14T03:16:49;18.60;57.70
24744;DHT22;12844;52.110;5.548;2024-02-14T03:19:15;18.50;58.20
24744;DHT22;12844;52.110;5.548;2024-02-14T03:21:40;18.60;57.30
24744;DHT22;12844;52.110;5.548;2024-02-14T03:24:08;18.50;57.10
24744;DHT22;12844;52.110;5.548;2024-02-14T03:26:35;18.50;57.20
24744;DHT22;12844;52.110;5.548;2024-02-14T03:29:01;18.50;57.10
24744;DHT22;12844;52.110;5.548;2024-02-14T03:31:27;18.50;57.30
24744;DHT22;12844;52.110;5.548;2024-02-14T03:33:53;18.50;57.20
24744;DHT22;12844;52.110;5.548;2024-02-14T03:36:19;18.50;57.00
24744;DHT22;12844;52.110;5.548;2024-02-14T03:38:45;18.50;57.30
24744;DHT22;12844;52.110;5.548;2024-02-14T03:41:12;18.50;57.50
24744;DHT22;12844;52.110;5.548;2024-02-14T03:43:38;18.50;57.20
24744;DHT22;12844;52.110;5.548;2024-02-14T03:46:04;18.50;57.30
24744;DHT22;12844;52.110;5.548;2024-02-14T03:48:31;18.50;57.10
24744;DHT22;12844;52.110;5.548;2024-02-14T03:50:57;18.50;57.20
24744;DHT22;12844;52.110;5.548;2024-02-14T03:53:23;18.50;57.90
24744;DHT22;12844;52.110;5.548;2024-02-14T03:55:48;18.50;57.30
24744;DHT22;12844;52.110;5.548;2024-02-14T03:58:15;18.50;57.20
24744;DHT22;12844;52.110;5.548;2024-02-14T04:00:49;18.50;57.20
24744;DHT22;12844;52.110;5.548;2024-02-14T04:03:16;18.50;57.20
24744;DHT22;12844;52.110;5.548;2024-02-14T04:05:42;18.40;57.20
24744;DHT22;12844;52.110;5.548;2024-02-14T04:08:07;18.50;57.20
24744;DHT22;12844;52.110;5.548;2024-02-14T04:10:36;18.50;57.20
24744;DHT22;12844;52.110;5.548;2024-02-14T04:13:03;18.40;57.10
24744;DHT22;12844;52.110;5.548;2024-02-14T04:15:30;18.50;57.40
24744;DHT22;12844;52.110;5.548;2024-02-14T04:17:56;18.40;57.40
24744;DHT22;12844;52.110;5.548;2024-02-14T04:20:21;18.40;57.30
24744;DHT22;12844;52.110;5.548;2024-02-14T04:22:47;18.40;57.00
24744;DHT22;12844;52.110;5.548;2024-02-14T04:25:13;18.40;57.20
24744;DHT22;12844;52.110;5.548;2024-02-14T04:27:38;18.40;57.10
24744;DHT22;12844;52.110;5.548;2024-02-14T04:30:05;18.40;57.20
24744;DHT22;12844;52.110;5.548;2024-02-14T04:32:31;18.40;57.50
24744;DHT22;12844;52.110;5.548;2024-02-14T04:34:56;18.40;57.40
24744;DHT22;12844;52.110;5.548;2024-02-14T04:37:23;18.40;57.70
24744;DHT22;12844;52.110;5.548;2024-02-14T04:39:48;18.40;57.10
24744;DHT22;12844;52.110;5.548;2024-02-14T04:42:14;18.50;57.00
24744;DHT22;12844;52.110;5.548;2024-02-14T04:44:40;18.40;57.00
24744;DHT22;12844;52.110;5.548;2024-02-14T04:47:05;18.40;56.80
24744;DHT22;12844;52.110;5.548;2024-02-14T04:49:31;18.50;56.90
24744;DHT22;12844;52.110;5.548;2024-02-14T04:51:57;18.40;56.90
24744;DHT22;12844;52.110;5.548;2024-02-14T04:54:23;18.40;56.80
24744;DHT22;12844;52.110;5.548;2024-02-14T04:56:48;18.40;56.70
24744;DHT22;12844;52.110;5.548;2024-02-14T04:59:14;18.40;56.80
24744;DHT22;12844;52.110;5.548;2024-02-14T05:01:40;18.40;56.80
24744;DHT22;12844;52.110;5.548;2024-02-14T05:04:06;18.40;56.70
24744;DHT22;12844;52.110;5.548;2024-02-14T05:06:32;18.40;56.70
24744;DHT22;12844;52.110;5.548;2024-02-14T05:08:58;18.30;56.70
24744;DHT22;12844;52.110;5.548;2024-02-14T05:11:24;18.30;56.70
24744;DHT22;12844;52.110;5.548;2024-02-14T05:13:50;18.40;56.80
24744;DHT22;12844;52.110;5.548;2024-02-14T05:16:19;18.30;56.60
24744;DHT22;12844;52.110;5.548;2024-02-14T05:18:45;18.30;56.60
24744;DHT22;12844;52.110;5.548;2024-02-14T05:21:11;18.30;56.60
24744;DHT22;12844;52.110;5.548;2024-02-14T05:23:37;18.30;56.60
24744;DHT22;12844;52.110;5.548;2024-02-14T05:26:03;18.30;56.60
24744;DHT22;12844;52.110;5.548;2024-02-14T05:28:29;18.30;56.60
24744;DHT22;12844;52.110;5.548;2024-02-14T05:30:56;18.30;56.50
24744;DHT22;12844;52.110;5.548;2024-02-14T05:33:22;18.30;56.60
24744;DHT22;12844;52.110;5.548;2024-02-14T05:35:52;18.30;56.60
24744;DHT22;12844;52.110;5.548;2024-02-14T05:38:18;18.30;56.60
24744;DHT22;12844;52.110;5.548;2024-02-14T05:40:47;18.30;56.70
24744;DHT22;12844;52.110;5.548;2024-02-14T05:43:13;18.30;56.70
24744;DHT22;12844;52.110;5.548;2024-02-14T05:45:39;18.30;56.80
24744;DHT22;12844;52.110;5.548;2024-02-14T05:48:05;18.30;56.70
24744;DHT22;12844;52.110;5.548;2024-02-14T05:50:31;18.30;56.60
24744;DHT22;12844;52.110;5.548;2024-02-14T05:52:56;18.30;56.60
24744;DHT22;12844;52.110;5.548;2024-02-14T05:55:23;18.30;56.60
24744;DHT22;12844;52.110;5.548;2024-02-14T05:57:53;18.30;56.70
24744;DHT22;12844;52.110;5.548;2024-02-14T06:00:19;18.20;56.60
24744;DHT22;12844;52.110;5.548;2024-02-14T06:02:46;18.20;56.60
24744;DHT22;12844;52.110;5.548;2024-02-14T06:05:13;18.30;56.70
24744;DHT22;12844;52.110;5.548;2024-02-14T06:07:39;18.20;56.60
24744;DHT22;12844;52.110;5.548;2024-02-14T06:10:06;18.20;56.60
24744;DHT22;12844;52.110;5.548;2024-02-14T06:12:32;18.20;56.70
24744;DHT22;12844;52.110;5.548;2024-02-14T06:14:58;18.20;56.70
24744;DHT22;12844;52.110;5.548;2024-02-14T06:17:24;18.20;56.70
24744;DHT22;12844;52.110;5.548;2024-02-14T06:19:52;18.20;56.70
24744;DHT22;12844;52.110;5.548;2024-02-14T06:22:17;18.20;56.70
24744;DHT22;12844;52.110;5.548;2024-02-14T06:24:43;18.20;56.70
24744;DHT22;12844;52.110;5.548;2024-02-14T06:27:08;18.20;56.70
24744;DHT22;12844;52.110;5.548;2024-02-14T06:29:34;18.20;56.70
24744;DHT22;12844;52.110;5.548;2024-02-14T06:32:00;18.20;56.80
24744;DHT22;12844;52.110;5.548;2024-02-14T06:34:26;18.20;56.70
24744;DHT22;12844;52.110;5.548;2024-02-14T06:36:53;18.20;56.70
24744;DHT22;12844;52.110;5.548;2024-02-14T06:39:19;18.20;56.70
24744;DHT22;12844;52.110;5.548;2024-02-14T06:41:46;18.20;56.70
24744;DHT22;12844;52.110;5.548;2024-02-14T06:44:12;18.20;56.70
24744;DHT22;12844;52.110;5.548;2024-02-14T06:46:38;18.20;56.70
24744;DHT22;12844;52.110;5.548;2024-02-14T06:49:04;18.20;56.70
24744;DHT22;12844;52.110;5.548;2024-02-14T06:51:30;18.20;56.70
24744;DHT22;12844;52.110;5.548;2024-02-14T06:53:56;18.20;56.70
24744;DHT22;12844;52.110;5.548;2024-02-14T06:56:22;18.20;56.70
24744;DHT22;12844;52.110;5.548;2024-02-14T06:58:48;18.20;56.70
24744;DHT22;12844;52.110;5.548;2024-02-14T07:01:19;18.20;56.70
24744;DHT22;12844;52.110;5.548;2024-02-14T07:03:47;18.20;56.60
24744;DHT22;12844;52.110;5.548;2024-02-14T07:06:13;18.20;56.70
24744;DHT22;12844;52.110;5.548;2024-02-14T07:08:42;18.20;56.70
24744;DHT22;12844;52.110;5.548;2024-02-14T07:11:08;18.20;56.70
24744;DHT22;12844;52.110;5.548;2024-02-14T07:13:33;18.20;56.70
24744;DHT22;12844;52.110;5.548;2024-02-14T07:16:00;18.10;56.70
24744;DHT22;12844;52.110;5.548;2024-02-14T07:18:25;18.10;56.70
24744;DHT22;12844;52.110;5.548;2024-02-14T07:20:51;18.20;56.70
24744;DHT22;12844;52.110;5.548;2024-02-14T07:23:19;18.10;56.70
24744;DHT22;12844;52.110;5.548;2024-02-14T07:25:44;18.10;56.70
24744;DHT22;12844;52.110;5.548;2024-02-14T07:28:10;18.10;56.70
24744;DHT22;12844;52.110;5.548;2024-02-14T07:30:36;18.10;56.70
24744;DHT22;12844;52.110;5.548;2024-02-14T07:33:02;18.10;56.70
24744;DHT22;12844;52.110;5.548;2024-02-14T07:35:27;18.10;56.70
24744;DHT22;12844;52.110;5.548;2024-02-14T07:38:10;18.10;56.70
24744;DHT22;12844;52.110;5.548;2024-02-14T07:40:35;18.10;56.70
24744;DHT22;12844;52.110;5.548;2024-02-14T07:43:01;18.10;56.70
24744;DHT22;12844;52.110;5.548;2024-02-14T07:45:27;18.10;56.90
24744;DHT22;12844;52.110;5.548;2024-02-14T07:47:53;18.10;56.90
24744;DHT22;12844;52.110;5.548;2024-02-14T07:50:19;18.10;57.20
24744;DHT22;12844;52.110;5.548;2024-02-14T07:52:45;18.20;57.30
24744;DHT22;12844;52.110;5.548;2024-02-14T07:55:11;18.20;57.40
24744;DHT22;12844;52.110;5.548;2024-02-14T07:57:38;18.30;57.40
24744;DHT22;12844;52.110;5.548;2024-02-14T08:00:08;18.40;57.30
24744;DHT22;12844;52.110;5.548;2024-02-14T08:02:34;18.50;57.20
24744;DHT22;12844;52.110;5.548;2024-02-14T08:05:00;18.60;57.20
24744;DHT22;12844;52.110;5.548;2024-02-14T08:07:34;18.70;57.00
24744;DHT22;12844;52.110;5.548;2024-02-14T08:09:59;18.80;57.20
24744;DHT22;12844;52.110;5.548;2024-02-14T08:12:25;18.90;57.10
24744;DHT22;12844;52.110;5.548;2024-02-14T08:14:52;19.00;57.10
24744;DHT22;12844;52.110;5.548;2024-02-14T08:17:17;19.00;57.10
24744;DHT22;12844;52.110;5.548;2024-02-14T08:19:43;19.00;57.80
24744;DHT22;12844;52.110;5.548;2024-02-14T08:22:08;19.00;57.20
24744;DHT22;12844;52.110;5.548;2024-02-14T08:24:34;19.00;57.00
24744;DHT22;12844;52.110;5.548;2024-02-14T08:27:00;19.10;57.20
24744;DHT22;12844;52.110;5.548;2024-02-14T08:29:25;19.10;57.20
24744;DHT22;12844;52.110;5.548;2024-02-14T08:31:51;19.10;57.70
24744;DHT22;12844;52.110;5.548;2024-02-14T08:34:19;19.10;57.20
24744;DHT22;12844;52.110;5.548;2024-02-14T08:36:45;19.10;57.10
24744;DHT22;12844;52.110;5.548;2024-02-14T08:39:11;19.10;57.20
24744;DHT22;12844;52.110;5.548;2024-02-14T08:41:37;19.10;57.30
24744;DHT22;12844;52.110;5.548;2024-02-14T08:44:03;19.20;57.40
24744;DHT22;12844;52.110;5.548;2024-02-14T08:46:31;19.20;57.40
24744;DHT22;12844;52.110;5.548;2024-02-14T08:48:56;19.20;58.10
24744;DHT22;12844;52.110;5.548;2024-02-14T08:51:22;19.20;57.60
24744;DHT22;12844;52.110;5.548;2024-02-14T08:53:49;19.20;57.60
24744;DHT22;12844;52.110;5.548;2024-02-14T08:56:18;19.10;57.50
24744;DHT22;12844;52.110;5.548;2024-02-14T08:58:44;19.20;57.50
24744;DHT22;12844;52.110;5.548;2024-02-14T09:01:10;19.10;57.30
24744;DHT22;12844;52.110;5.548;2024-02-14T09:03:36;19.10;58.00
24744;DHT22;12844;52.110;5.548;2024-02-14T09:06:02;19.20;57.40
24744;DHT22;12844;52.110;5.548;2024-02-14T09:08:29;19.20;57.50
24744;DHT22;12844;52.110;5.548;2024-02-14T09:10:56;19.20;57.40
24744;DHT22;12844;52.110;5.548;2024-02-14T09:13:22;19.20;57.40
24744;DHT22;12844;52.110;5.548;2024-02-14T09:15:48;19.20;57.40
24744;DHT22;12844;52.110;5.548;2024-02-14T09:18:15;19.10;57.30
24744;DHT22;12844;52.110;5.548;2024-02-14T09:20:44;19.10;57.60
24744;DHT22;12844;52.110;5.548;2024-02-14T09:23:12;19.10;57.50
24744;DHT22;12844;52.110;5.548;2024-02-14T09:25:39;19.10;57.50
24744;DHT22;12844;52.110;5.548;2024-02-14T09:28:05;19.10;57.80
24744;DHT22;12844;52.110;5.548;2024-02-14T09:30:32;19.10;57.70
24744;DHT22;12844;52.110;5.548;2024-02-14T09:32:58;19.10;57.80
24744;DHT22;12844;52.110;5.548;2024-02-14T09:35:24;19.00;57.70
24744;DHT22;12844;52.110;5.548;2024-02-14T09:37:50;19.00;57.70
24744;DHT22;12844;52.110;5.548;2024-02-14T09:40:16;19.00;57.70
24744;DHT22;12844;52.110;5.548;2024-02-14T09:42:58;19.00;57.70
24744;DHT22;12844;52.110;5.548;2024-02-14T09:45:27;19.00;57.70
24744;DHT22;12844;52.110;5.548;2024-02-14T09:47:56;19.00;57.60
24744;DHT22;12844;52.110;5.548;2024-02-14T09:50:23;19.00;57.50
24744;DHT22;12844;52.110;5.548;2024-02-14T09:52:54;19.00;57.70
24744;DHT22;12844;52.110;5.548;2024-02-14T09:55:20;18.90;57.60
24744;DHT22;12844;52.110;5.548;2024-02-14T09:57:49;18.90;57.80
24744;DHT22;12844;52.110;5.548;2024-02-14T10:00:15;18.90;57.80
24744;DHT22;12844;52.110;5.548;2024-02-14T10:02:41;18.90;57.90
24744;DHT22;12844;52.110;5.548;2024-02-14T10:05:07;18.90;57.90
24744;DHT22;12844;52.110;5.548;2024-02-14T10:07:43;18.80;57.80
24744;DHT22;12844;52.110;5.548;2024-02-14T10:10:09;18.80;57.90
24744;DHT22;12844;52.110;5.548;2024-02-14T10:12:36;18.80;57.90
24744;DHT22;12844;52.110;5.548;2024-02-14T10:15:01;18.80;57.90
24744;DHT22;12844;52.110;5.548;2024-02-14T10:17:27;18.80;58.00
24744;DHT22;12844;52.110;5.548;2024-02-14T10:20:01;18.70;57.90
24744;DHT22;12844;52.110;5.548;2024-02-14T10:22:36;18.70;57.90
24744;DHT22;12844;52.110;5.548;2024-02-14T10:25:05;18.70;58.00
24744;DHT22;12844;52.110;5.548;2024-02-14T10:27:37;18.70;58.00
24744;DHT22;12844;52.110;5.548;2024-02-14T10:30:08;18.70;58.00
24744;DHT22;12844;52.110;5.548;2024-02-14T10:32:35;18.70;58.00
24744;DHT22;12844;52.110;5.548;2024-02-14T10:35:04;18.60;58.00
24744;DHT22;12844;52.110;5.548;2024-02-14T10:37:34;18.60;58.00
24744;DHT22;12844;52.110;5.548;2024-02-14T10:40:02;18.70;58.00
24744;DHT22;12844;52.110;5.548;2024-02-14T10:42:29;18.60;58.00
24744;DHT22;12844;52.110;5.548;2024-02-14T10:44:55;18.60;58.00
24744;DHT22;12844;52.110;5.548;2024-02-14T10:47:24;18.60;58.00
24744;DHT22;12844;52.110;5.548;2024-02-14T10:49:50;18.60;58.00
24744;DHT22;12844;52.110;5.548;2024-02-14T10:52:18;18.60;58.00
24744;DHT22;12844;52.110;5.548;2024-02-14T10:54:48;18.60;58.00
24744;DHT22;12844;52.110;5.548;2024-02-14T10:57:18;18.60;58.00
24744;DHT22;12844;52.110;5.548;2024-02-14T10:59:46;18.50;58.00
24744;DHT22;12844;52.110;5.548;2024-02-14T11:02:14;18.60;58.00
24744;DHT22;12844;52.110;5.548;2024-02-14T11:04:40;18.60;58.10
24744;DHT22;12844;52.110;5.548;2024-02-14T11:07:09;18.50;58.00
24744;DHT22;12844;52.110;5.548;2024-02-14T11:09:38;18.60;58.00
24744;DHT22;12844;52.110;5.548;2024-02-14T11:12:12;18.50;57.90
24744;DHT22;12844;52.110;5.548;2024-02-14T11:14:37;18.50;58.00
24744;DHT22;12844;52.110;5.548;2024-02-14T11:17:10;18.50;58.00
24744;DHT22;12844;52.110;5.548;2024-02-14T11:19:35;18.50;58.00
24744;DHT22;12844;52.110;5.548;2024-02-14T11:22:21;18.50;57.90
24744;DHT22;12844;52.110;5.548;2024-02-14T11:24:47;18.50;57.90
24744;DHT22;12844;52.110;5.548;2024-02-14T11:27:14;18.50;58.00
24744;DHT22;12844;52.110;5.548;2024-02-14T11:29:40;18.50;58.00
24744;DHT22;12844;52.110;5.548;2024-02-14T11:32:07;18.50;58.00
24744;DHT22;12844;52.110;5.548;2024-02-14T11:34:35;18.40;58.00
24744;DHT22;12844;52.110;5.548;2024-02-14T11:37:01;18.40;57.90
24744;DHT22;12844;52.110;5.548;2024-02-14T11:39:27;18.40;58.10
24744;DHT22;12844;52.110;5.548;2024-02-14T11:41:52;18.40;57.90
24744;DHT22;12844;52.110;5.548;2024-02-14T11:44:21;18.40;57.90
24744;DHT22;12844;52.110;5.548;2024-02-14T11:46:51;18.50;58.00
24744;DHT22;12844;52.110;5.548;2024-02-14T11:49:17;18.40;58.00
24744;DHT22;12844;52.110;5.548;2024-02-14T11:51:42;18.40;58.00
24744;DHT22;12844;52.110;5.548;2024-02-14T11:54:09;18.40;57.90
24744;DHT22;12844;52.110;5.548;2024-02-14T11:56:38;18.40;57.90
24744;DHT22;12844;52.110;5.548;2024-02-14T11:59:05;18.40;57.90
24744;DHT22;12844;52.110;5.548;2024-02-14T12:01:32;18.40;57.90
24744;DHT22;12844;52.110;5.548;2024-02-14T12:04:04;18.40;58.00
24744;DHT22;12844;52.110;5.548;2024-02-14T12:06:32;18.40;58.00
24744;DHT22;12844;52.110;5.548;2024-02-14T12:09:01;18.40;58.00
24744;DHT22;12844;52.110;5.548;2024-02-14T12:11:33;18.40;58.00
24744;DHT22;12844;52.110;5.548;2024-02-14T12:14:02;18.40;58.00
24744;DHT22;12844;52.110;5.548;2024-02-14T12:16:30;18.40;58.00
24744;DHT22;12844;52.110;5.548;2024-02-14T12:19:08;18.40;58.60
24744;DHT22;12844;52.110;5.548;2024-02-14T12:21:38;18.40;58.00
24744;DHT22;12844;52.110;5.548;2024-02-14T12:24:08;18.40;58.00
24744;DHT22;12844;52.110;5.548;2024-02-14T12:26:38;18.40;58.10
24744;DHT22;12844;52.110;5.548;2024-02-14T12:29:04;18.30;57.90
24744;DHT22;12844;52.110;5.548;2024-02-14T12:31:30;18.30;58.00
24744;DHT22;12844;52.110;5.548;2024-02-14T12:33:59;18.30;57.90
24744;DHT22;12844;52.110;5.548;2024-02-14T12:36:28;18.30;57.90
24744;DHT22;12844;52.110;5.548;2024-02-14T12:38:57;18.30;57.90
24744;DHT22;12844;52.110;5.548;2024-02-14T12:41:23;18.30;57.90
24744;DHT22;12844;52.110;5.548;2024-02-14T12:43:52;18.30;57.90
24744;DHT22;12844;52.110;5.548;2024-02-14T12:46:19;18.30;57.90
24744;DHT22;12844;52.110;5.548;2024-02-14T12:48:44;18.30;57.90
24744;DHT22;12844;52.110;5.548;2024-02-14T12:51:10;18.30;57.90
24744;DHT22;12844;52.110;5.548;2024-02-14T12:53:36;18.30;58.00
24744;DHT22;12844;52.110;5.548;2024-02-14T12:56:02;18.30;58.50
24744;DHT22;12844;52.110;5.548;2024-02-14T12:58:30;18.30;57.90
24744;DHT22;12844;52.110;5.548;2024-02-14T13:00:56;18.30;58.00
24744;DHT22;12844;52.110;5.548;2024-02-14T13:03:21;18.30;57.90
24744;DHT22;12844;52.110;5.548;2024-02-14T13:05:48;18.30;58.00
24744;DHT22;12844;52.110;5.548;2024-02-14T13:08:13;18.30;57.90
24744;DHT22;12844;52.110;5.548;2024-02-14T13:10:43;18.30;57.90
24744;DHT22;12844;52.110;5.548;2024-02-14T13:13:08;18.30;58.00
24744;DHT22;12844;52.110;5.548;2024-02-14T13:15:34;18.30;57.90
24744;DHT22;12844;52.110;5.548;2024-02-14T13:18:01;18.30;58.30
24744;DHT22;12844;52.110;5.548;2024-02-14T13:20:28;18.20;57.90
24744;DHT22;12844;52.110;5.548;2024-02-14T13:22:54;18.30;58.00
24744;DHT22;12844;52.110;5.548;2024-02-14T13:25:20;18.30;57.90
24744;DHT22;12844;52.110;5.548;2024-02-14T13:27:47;18.30;57.90
24744;DHT22;12844;52.110;5.548;2024-02-14T13:30:13;18.20;57.90
24744;DHT22;12844;52.110;5.548;2024-02-14T13:32:39;18.30;58.00
24744;DHT22;12844;52.110;5.548;2024-02-14T13:35:05;18.20;57.90
24744;DHT22;12844;52.110;5.548;2024-02-14T13:37:33;18.20;57.90
24744;DHT22;12844;52.110;5.548;2024-02-14T13:39:59;18.20;57.90
24744;DHT22;12844;52.110;5.548;2024-02-14T13:42:24;18.20;57.90
24744;DHT22;12844;52.110;5.548;2024-02-14T13:44:51;18.20;58.00
24744;DHT22;12844;52.110;5.548;2024-02-14T13:47:19;18.20;58.00
24744;DHT22;12844;52.110;5.548;2024-02-14T13:49:46;18.20;58.00
24744;DHT22;12844;52.110;5.548;2024-02-14T13:52:11;18.20;57.90
24744;DHT22;12844;52.110;5.548;2024-02-14T13:54:37;18.20;58.00
24744;DHT22;12844;52.110;5.548;2024-02-14T13:57:03;18.20;57.90
24744;DHT22;12844;52.110;5.548;2024-02-14T13:59:28;18.20;57.90
24744;DHT22;12844;52.110;5.548;2024-02-14T14:01:55;18.20;58.00
24744;DHT22;12844;52.110;5.548;2024-02-14T14:04:20;18.20;58.00
24744;DHT22;12844;52.110;5.548;2024-02-14T14:06:46;18.20;58.00
24744;DHT22;12844;52.110;5.548;2024-02-14T14:09:14;18.20;58.00
24744;DHT22;12844;52.110;5.548;2024-02-14T14:11:39;18.20;58.00
24744;DHT22;12844;52.110;5.548;2024-02-14T14:14:05;18.20;58.00
24744;DHT22;12844;52.110;5.548;2024-02-14T14:16:31;18.20;58.00
24744;DHT22;12844;52.110;5.548;2024-02-14T14:18:58;18.20;58.00
24744;DHT22;12844;52.110;5.548;2024-02-14T14:21:24;18.20;58.00
24744;DHT22;12844;52.110;5.548;2024-02-14T14:23:50;18.20;58.00
24744;DHT22;12844;52.110;5.548;2024-02-14T14:26:15;18.20;58.00
24744;DHT22;12844;52.110;5.548;2024-02-14T14:28:41;18.10;58.00
24744;DHT22;12844;52.110;5.548;2024-02-14T14:31:08;18.20;58.00
24744;DHT22;12844;52.110;5.548;2024-02-14T14:33:36;18.10;58.00
24744;DHT22;12844;52.110;5.548;2024-02-14T14:36:02;18.10;58.00
24744;DHT22;12844;52.110;5.548;2024-02-14T14:38:28;18.10;58.00
24744;DHT22;12844;52.110;5.548;2024-02-14T14:40:57;18.10;58.00
24744;DHT22;12844;52.110;5.548;2024-02-14T14:43:24;18.10;58.00
24744;DHT22;12844;52.110;5.548;2024-02-14T14:45:50;18.10;58.00
24744;DHT22;12844;52.110;5.548;2024-02-14T14:48:17;18.10;58.00
24744;DHT22;12844;52.110;5.548;2024-02-14T14:50:43;18.10;58.00
24744;DHT22;12844;52.110;5.548;2024-02-14T14:53:09;18.10;58.00
24744;DHT22;12844;52.110;5.548;2024-02-14T14:55:54;18.10;58.00
24744;DHT22;12844;52.110;5.548;2024-02-14T14:58:21;18.20;58.00
24744;DHT22;12844;52.110;5.548;2024-02-14T15:00:49;18.10;58.00
24744;DHT22;12844;52.110;5.548;2024-02-14T15:03:14;18.10;58.00
24744;DHT22;12844;52.110;5.548;2024-02-14T15:05:40;18.10;58.00
24744;DHT22;12844;52.110;5.548;2024-02-14T15:08:07;18.10;58.00
24744;DHT22;12844;52.110;5.548;2024-02-14T15:10:36;18.10;58.00
24744;DHT22;12844;52.110;5.548;2024-02-14T15:13:07;18.10;58.00
24744;DHT22;12844;52.110;5.548;2024-02-14T15:15:39;18.10;58.00
24744;DHT22;12844;52.110;5.548;2024-02-14T15:18:05;18.10;58.00
24744;DHT22;12844;52.110;5.548;2024-02-14T15:20:31;18.10;58.00
24744;DHT22;12844;52.110;5.548;2024-02-14T15:22:57;18.10;58.10
24744;DHT22;12844;52.110;5.548;2024-02-14T15:25:22;18.10;58.00
24744;DHT22;12844;52.110;5.548;2024-02-14T15:27:51;18.10;58.00